Time;durP1;ratioP1;P1;durP2;ratioP2;P2;SDS_P1;SDS_P2;PMS_P1;PMS_P2;Temp;Humidity;BMP_temperature;BMP_pressure;BME280_temperature;BME280_humidity;BME280_pressure;Samples;Min_cycle;Max_cycle;Signal;HPM_P1;HPM_P2
2023/07/19 00:01:50;;;;;;;12.32;5.70;;;;;;;23.35;76.54;100304.03;4995855;28;20125;-72
2023/07/19 00:04:15;;;;;;;11.13;6.10;;;;;;;23.32;76.76;100290.44;4997076;28;20095;-72
2023/07/19 00:06:41;;;;;;;9.88;5.55;;;;;;;23.29;77.02;100283.78;5001948;28;20137;-71
2023/07/19 00:09:06;;;;;;;10.55;5.85;;;;;;;23.26;76.76;100283.63;5001732;28;20022;-73
2023/07/19 00:11:31;;;;;;;12.18;6.57;;;;;;;23.25;76.87;100298.16;5002072;28;20116;-73
2023/07/19 00:13:57;;;;;;;9.88;5.55;;;;;;;23.21;76.75;100281.09;4998948;28;20038;-72
2023/07/19 00:16:22;;;;;;;10.18;5.40;;;;;;;23.25;77.09;100290.09;5001849;28;20030;-72
2023/07/19 00:18:48;;;;;;;10.27;6.32;;;;;;;23.26;76.62;100286.31;5005334;28;20021;-72
2023/07/19 00:21:13;;;;;;;10.60;6.07;;;;;;;23.20;76.88;100274.13;4999870;28;20719;-74
2023/07/19 00:23:39;;;;;;;12.63;5.93;;;;;;;23.21;76.63;100281.88;5001063;28;20113;-74
2023/07/19 00:26:04;;;;;;;10.40;5.65;;;;;;;23.20;76.71;100290.25;5000792;28;20038;-74
2023/07/19 00:28:29;;;;;;;12.07;6.10;;;;;;;23.20;76.95;100285.69;4999990;28;20054;-74
2023/07/19 00:31:03;;;;;;;10.68;5.53;;;;;;;23.17;76.60;100282.81;4998129;28;20072;-74
2023/07/19 00:33:28;;;;;;;13.68;6.13;;;;;;;23.16;77.04;100289.31;4998096;28;20786;-73
2023/07/19 00:35:54;;;;;;;15.57;5.40;;;;;;;23.14;76.84;100281.56;4998730;28;20049;-74
2023/07/19 00:38:21;;;;;;;11.15;5.80;;;;;;;23.10;76.86;100294.78;5000309;28;20034;-74
2023/07/19 00:40:47;;;;;;;8.40;5.15;;;;;;;23.04;77.69;100324.81;4999677;28;20033;-74
2023/07/19 00:43:13;;;;;;;10.75;5.32;;;;;;;22.93;77.62;100297.41;5001763;28;20599;-73
2023/07/19 00:45:47;;;;;;;11.23;5.40;;;;;;;22.96;77.90;100307.50;4999772;28;20025;-73
2023/07/19 00:48:15;;;;;;;9.82;5.43;;;;;;;22.84;78.35;100275.91;4995355;28;20030;-74
2023/07/19 00:50:42;;;;;;;10.88;6.30;;;;;;;22.89;78.33;100275.75;5001288;28;20030;-73
2023/07/19 00:53:10;;;;;;;8.95;5.15;;;;;;;22.84;78.61;100273.22;5004969;28;20042;-73
2023/07/19 00:55:35;;;;;;;10.18;6.00;;;;;;;22.77;78.72;100262.13;5002962;28;20129;-73
2023/07/19 00:58:01;;;;;;;12.10;5.70;;;;;;;22.76;78.67;100265.91;5002270;28;20774;-73
2023/07/19 01:00:26;;;;;;;12.50;5.60;;;;;;;22.75;78.98;100258.16;5004905;28;20032;-73
2023/07/19 01:02:53;;;;;;;11.48;5.60;;;;;;;22.75;79.08;100276.94;5003676;28;20120;-75
2023/07/19 01:05:18;;;;;;;15.57;6.32;;;;;;;22.70;79.08;100262.56;5002501;28;20022;-75
2023/07/19 01:07:44;;;;;;;11.38;5.68;;;;;;;22.72;79.01;100254.19;5002402;28;20115;-74
2023/07/19 01:10:10;;;;;;;14.80;6.47;;;;;;;22.65;79.44;100238.56;5005795;28;20479;-75
2023/07/19 01:12:35;;;;;;;9.40;5.68;;;;;;;22.68;79.25;100231.78;5002088;28;20741;-74
2023/07/19 01:15:02;;;;;;;13.13;6.05;;;;;;;22.42;79.29;100192.19;5003529;28;20438;-75
2023/07/19 01:17:27;;;;;;;10.55;5.97;;;;;;;22.51;79.31;100206.44;5004607;28;20053;-75
2023/07/19 01:19:53;;;;;;;10.77;5.60;;;;;;;22.67;79.47;100222.94;5001037;28;20058;-75
2023/07/19 01:22:20;;;;;;;7.90;5.47;;;;;;;22.54;79.69;100204.25;5003854;28;20026;-74
2023/07/19 01:24:45;;;;;;;9.80;5.18;;;;;;;22.65;79.52;100222.47;5003553;28;20037;-75
2023/07/19 01:27:10;;;;;;;8.55;5.90;;;;;;;22.48;79.50;100200.91;5002965;28;20033;-75
2023/07/19 01:29:36;;;;;;;10.20;5.75;;;;;;;22.66;79.62;100224.03;5005011;28;20106;-75
2023/07/19 01:32:01;;;;;;;9.20;5.60;;;;;;;22.60;79.64;100219.91;5003148;28;20034;-75
2023/07/19 01:34:26;;;;;;;10.40;5.53;;;;;;;22.63;79.84;100226.56;5001935;28;20075;-75
2023/07/19 01:36:52;;;;;;;9.90;5.78;;;;;;;22.59;80.08;100215.63;5007265;28;20358;-75
2023/07/19 01:39:17;;;;;;;8.68;5.45;;;;;;;22.60;80.25;100240.56;5000550;28;20037;-74
2023/07/19 01:41:42;;;;;;;7.60;5.30;;;;;;;22.55;80.50;100232.66;5000725;28;20026;-75
2023/07/19 01:44:08;;;;;;;8.80;5.40;;;;;;;22.46;80.91;100232.63;5000675;28;20018;-75
2023/07/19 01:46:35;;;;;;;10.50;5.50;;;;;;;22.37;80.74;100218.38;5001670;28;20034;-75
2023/07/19 01:49:01;;;;;;;8.82;5.53;;;;;;;22.42;80.92;100234.34;5003530;28;20088;-72
2023/07/19 01:51:28;;;;;;;8.70;5.43;;;;;;;22.29;80.80;100209.97;5003186;28;20044;-75
2023/07/19 01:53:54;;;;;;;8.52;5.28;;;;;;;22.36;81.08;100224.84;5003525;28;20021;-75
2023/07/19 01:56:19;;;;;;;8.55;5.80;;;;;;;22.30;81.07;100227.66;5005342;28;20388;-76
2023/07/19 01:58:45;;;;;;;8.23;5.20;;;;;;;22.24;81.34;100220.84;4999661;28;20092;-74
2023/07/19 02:01:10;;;;;;;11.18;5.38;;;;;;;22.28;81.40;100231.75;5001383;28;20769;-74
2023/07/19 02:03:35;;;;;;;12.13;5.40;;;;;;;22.29;81.49;100228.75;4999943;28;20083;-75
2023/07/19 02:06:01;;;;;;;15.82;5.63;;;;;;;22.25;81.33;100227.00;5004320;28;20140;-74
2023/07/19 02:08:26;;;;;;;8.68;4.78;;;;;;;22.24;81.30;100228.91;5003132;28;20022;-75
2023/07/19 02:10:52;;;;;;;9.43;5.75;;;;;;;22.21;81.60;100226.03;5000981;28;20057;-71
2023/07/19 02:13:18;;;;;;;9.85;5.60;;;;;;;22.15;81.54;100224.53;5000136;28;20033;-72
2023/07/19 02:15:44;;;;;;;10.15;5.22;;;;;;;22.22;81.58;100231.09;4999061;28;20021;-71
2023/07/19 02:18:10;;;;;;;12.38;5.95;;;;;;;22.12;81.96;100219.78;5002910;28;20030;-70
2023/07/19 02:20:36;;;;;;;13.55;6.00;;;;;;;22.17;81.74;100230.38;5003881;28;20471;-72
2023/07/19 02:23:01;;;;;;;11.20;5.85;;;;;;;22.13;82.14;100222.16;5002646;28;20033;-71
2023/07/19 02:25:26;;;;;;;9.00;5.68;;;;;;;22.16;81.99;100226.91;5004775;28;20109;-71
2023/07/19 02:27:52;;;;;;;7.30;4.88;;;;;;;22.11;82.06;100228.94;5003636;28;20042;-71
2023/07/19 02:30:17;;;;;;;8.95;5.60;;;;;;;22.13;81.99;100235.56;5002902;28;20440;-71
2023/07/19 02:32:42;;;;;;;10.73;5.90;;;;;;;22.06;81.99;100233.31;5000876;28;20041;-71
2023/07/19 02:35:08;;;;;;;8.77;5.38;;;;;;;22.05;82.22;100231.75;5002720;28;20084;-72
2023/07/19 02:37:33;;;;;;;9.23;5.53;;;;;;;21.98;82.51;100223.34;5005101;28;20141;-72
2023/07/19 02:39:58;;;;;;;18.35;6.18;;;;;;;21.98;82.51;100220.66;4999114;28;20030;-71
2023/07/19 02:42:24;;;;;;;7.72;5.15;;;;;;;22.01;82.52;100225.41;5001282;28;20452;-71
2023/07/19 02:44:49;;;;;;;9.07;5.47;;;;;;;21.97;82.66;100223.63;4999474;28;20440;-72
2023/07/19 02:47:15;;;;;;;11.32;5.38;;;;;;;21.91;82.22;100214.13;5002463;28;20111;-71
2023/07/19 02:49:41;;;;;;;13.13;6.07;;;;;;;21.96;82.56;100228.22;5003957;28;20597;-72
2023/07/19 02:52:08;;;;;;;12.10;5.55;;;;;;;21.95;82.41;100215.09;5003040;28;20030;-72
2023/07/19 02:54:34;;;;;;;6.63;4.95;;;;;;;21.95;82.32;100220.47;5001405;28;20113;-72
2023/07/19 02:56:59;;;;;;;6.90;5.07;;;;;;;21.92;82.42;100215.72;4998978;28;20129;-72
2023/07/19 02:59:25;;;;;;;10.82;6.00;;;;;;;21.99;82.26;100229.50;4999659;28;20026;-73
2023/07/19 03:01:50;;;;;;;6.80;5.15;;;;;;;21.97;82.40;100231.69;4997233;28;20126;-74
2023/07/19 03:04:15;;;;;;;8.38;5.20;;;;;;;21.96;82.49;100238.16;5001304;28;20036;-75
2023/07/19 03:06:41;;;;;;;9.82;5.63;;;;;;;21.93;82.07;100233.38;5002260;28;20022;-76
2023/07/19 03:09:06;;;;;;;8.17;5.40;;;;;;;21.92;82.63;100237.94;5001838;28;20106;-75
2023/07/19 03:11:32;;;;;;;9.50;5.07;;;;;;;21.83;82.50;100229.84;5000928;28;20354;-76
2023/07/19 03:13:57;;;;;;;10.13;5.93;;;;;;;21.93;82.51;100242.19;5001949;28;20036;-75
2023/07/19 03:16:23;;;;;;;6.63;5.13;;;;;;;21.84;82.62;100223.41;5002804;28;20026;-74
2023/07/19 03:18:48;;;;;;;8.20;5.47;;;;;;;21.91;82.49;100232.88;5000731;28;20454;-74
2023/07/19 03:21:13;;;;;;;8.55;5.30;;;;;;;21.90;82.69;100234.78;5001916;28;20030;-74
2023/07/19 03:23:39;;;;;;;11.00;5.53;;;;;;;21.86;82.68;100223.88;5000448;28;20033;-75
2023/07/19 03:26:04;;;;;;;11.68;5.25;;;;;;;21.91;82.70;100224.84;5001492;28;20113;-77
2023/07/19 03:28:37;;;;;;;9.27;5.30;;;;;;;21.91;82.46;100216.81;5005670;28;20109;-70
2023/07/19 03:31:03;;;;;;;8.63;5.50;;;;;;;21.88;82.83;100216.34;5003161;28;20089;-71
2023/07/19 03:33:28;;;;;;;10.73;5.00;;;;;;;21.84;82.86;100212.66;5002800;28;20033;-72
2023/07/19 03:35:54;;;;;;;10.75;5.22;;;;;;;21.83;82.73;100210.28;5000487;28;20089;-74
2023/07/19 03:38:20;;;;;;;8.52;5.63;;;;;;;21.91;82.76;100214.13;5003176;28;20109;-74
2023/07/19 03:40:46;;;;;;;7.72;5.25;;;;;;;21.86;82.95;100213.16;5000136;28;20033;-70
2023/07/19 03:43:11;;;;;;;10.68;5.32;;;;;;;21.83;83.04;100212.97;5004774;28;20025;-76
2023/07/19 03:45:37;;;;;;;10.93;5.50;;;;;;;21.76;82.89;100216.06;5004485;28;20034;-78
2023/07/19 03:48:03;;;;;;;13.90;5.60;;;;;;;21.75;83.04;100225.22;5002620;28;20087;-74
2023/07/19 03:50:28;;;;;;;14.70;5.90;;;;;;;21.79;82.83;100231.56;5005162;28;20037;-74
2023/07/19 03:52:54;;;;;;;11.90;5.93;;;;;;;21.78;82.86;100227.28;5002687;28;20041;-75
2023/07/19 03:55:20;;;;;;;8.57;5.35;;;;;;;21.73;82.99;100216.69;5002066;28;20018;-74
2023/07/19 03:57:47;;;;;;;10.38;5.63;;;;;;;21.72;83.06;100223.16;5000537;28;20084;-74
2023/07/19 04:00:12;;;;;;;12.07;5.22;;;;;;;21.73;82.76;100234.66;4998843;28;20035;-75
2023/07/19 04:02:37;;;;;;;12.77;6.30;;;;;;;21.79;82.92;100254.91;5000150;28;20037;-75
2023/07/19 04:05:03;;;;;;;16.02;6.13;;;;;;;21.88;83.03;100264.59;5004925;28;20502;-75
2023/07/19 04:07:29;;;;;;;19.30;6.07;;;;;;;21.93;83.16;100260.97;5000785;28;20137;-76
2023/07/19 04:09:54;;;;;;;18.83;6.65;;;;;;;21.92;83.00;100247.88;5002663;28;20029;-75
2023/07/19 04:12:19;;;;;;;8.30;6.05;;;;;;;22.04;82.55;100264.22;4998934;28;20026;-68
2023/07/19 04:14:45;;;;;;;12.43;6.78;;;;;;;22.05;82.86;100252.38;4997616;28;20461;-69
2023/07/19 04:17:11;;;;;;;18.58;7.05;;;;;;;22.07;82.72;100231.41;4998782;28;20061;-69
2023/07/19 04:19:36;;;;;;;14.25;6.82;;;;;;;22.02;82.39;100216.25;5003094;28;20034;-68
2023/07/19 04:22:02;;;;;;;11.48;7.35;;;;;;;22.23;82.80;100246.06;4999917;28;20026;-69
2023/07/19 04:24:28;;;;;;;11.68;7.13;;;;;;;22.35;82.64;100264.28;4999020;28;20488;-69
2023/07/19 04:26:53;;;;;;;10.88;7.18;;;;;;;22.41;82.62;100271.13;4999875;28;20037;-69
2023/07/19 04:29:22;;;;;;;20.20;6.45;;;;;;;22.41;82.84;100257.72;5004818;28;20488;-68
2023/07/19 04:31:47;;;;;;;11.93;7.60;;;;;;;22.48;82.77;100268.78;5003841;28;20031;-67
2023/07/19 04:34:13;;;;;;;10.32;6.97;;;;;;;22.60;83.34;100273.59;5003871;28;20396;-74
2023/07/19 04:36:39;;;;;;;11.82;7.22;;;;;;;22.62;82.80;100257.94;5005759;28;20065;-74
2023/07/19 04:39:05;;;;;;;12.88;7.22;;;;;;;22.67;82.82;100238.22;5004625;28;20105;-75
2023/07/19 04:41:30;;;;;;;10.60;7.15;;;;;;;22.77;83.17;100229.09;5005260;28;20055;-75
2023/07/19 04:43:56;;;;;;;14.90;7.38;;;;;;;22.76;83.14;100212.22;5004158;28;20368;-74
2023/07/19 04:46:21;;;;;;;14.48;8.02;;;;;;;22.84;83.54;100218.72;5003653;28;20030;-75
2023/07/19 04:48:47;;;;;;;14.68;7.60;;;;;;;22.96;83.77;100228.84;5003789;28;20123;-72
2023/07/19 04:51:12;;;;;;;16.80;7.43;;;;;;;23.02;83.39;100222.28;5003950;28;20025;-72
2023/07/19 04:53:38;;;;;;;12.75;7.75;;;;;;;23.06;83.54;100218.66;5003959;28;20909;-71
2023/07/19 04:56:04;;;;;;;12.63;7.78;;;;;;;23.16;83.35;100217.56;5006182;28;20511;-72
2023/07/19 04:58:29;;;;;;;9.50;7.07;;;;;;;23.21;83.06;100206.66;5002851;28;20559;-74
2023/07/19 05:00:54;;;;;;;14.48;8.18;;;;;;;23.27;82.95;100212.66;5004847;28;20030;-72
2023/07/19 05:03:21;;;;;;;14.13;7.72;;;;;;;23.31;82.73;100200.19;5002242;28;20026;-73
2023/07/19 05:05:49;;;;;;;16.52;7.88;;;;;;;23.46;82.74;100202.41;5000169;28;20040;-73
2023/07/19 05:08:15;;;;;;;16.10;8.75;;;;;;;23.52;82.39;100195.78;5000009;28;20043;-73
2023/07/19 05:10:40;;;;;;;13.93;7.90;;;;;;;23.60;81.88;100188.81;5001886;28;20036;-72
2023/07/19 05:13:08;;;;;;;13.95;7.85;;;;;;;23.65;81.49;100206.66;5003364;28;20022;-73
2023/07/19 05:15:34;;;;;;;14.65;7.63;;;;;;;23.68;81.40;100206.84;5003000;28;20064;-71
2023/07/19 05:18:00;;;;;;;13.77;7.93;;;;;;;23.77;81.25;100217.59;5002369;28;20165;-74
2023/07/19 05:20:26;;;;;;;11.05;8.10;;;;;;;23.59;80.82;100191.81;4998876;28;20071;-73
2023/07/19 05:22:51;;;;;;;16.30;8.90;;;;;;;23.86;80.36;100234.53;5003953;28;20711;-74
2023/07/19 05:25:17;;;;;;;12.82;8.20;;;;;;;23.99;80.22;100243.50;5003812;28;20495;-74
2023/07/19 05:27:43;;;;;;;12.63;7.88;;;;;;;24.11;79.71;100240.19;5006533;28;20021;-76
2023/07/19 05:30:09;;;;;;;15.73;8.10;;;;;;;24.18;79.31;100246.66;5006295;28;20029;-73
2023/07/19 05:32:34;;;;;;;11.52;8.20;;;;;;;24.24;79.07;100258.03;5003961;28;20128;-72
2023/07/19 05:35:00;;;;;;;10.95;8.23;;;;;;;24.28;78.18;100240.16;5002898;28;20550;-68
2023/07/19 05:37:27;;;;;;;19.25;9.00;;;;;;;24.42;78.38;100242.63;5004119;28;20045;-74
2023/07/19 05:39:53;;;;;;;16.52;9.15;;;;;;;24.50;78.14;100247.25;5002339;28;20056;-71
2023/07/19 05:42:19;;;;;;;16.88;8.35;;;;;;;24.56;77.53;100251.31;5003169;28;20029;-69
2023/07/19 05:44:44;;;;;;;14.63;8.93;;;;;;;24.58;77.32;100243.72;5003357;28;20045;-69
2023/07/19 05:47:10;;;;;;;15.30;8.43;;;;;;;24.67;77.00;100243.69;5005648;28;20052;-67
2023/07/19 05:49:35;;;;;;;12.20;8.43;;;;;;;24.76;76.89;100252.53;5002859;28;20041;-67
2023/07/19 05:52:01;;;;;;;15.77;8.57;;;;;;;24.77;76.52;100246.00;5001168;28;20022;-68
2023/07/19 05:54:26;;;;;;;11.90;8.55;;;;;;;24.82;76.43;100251.22;5001296;28;20026;-68
2023/07/19 05:56:52;;;;;;;15.00;9.10;;;;;;;24.88;76.22;100257.22;5004523;28;20072;-68
2023/07/19 05:59:17;;;;;;;12.82;8.90;;;;;;;24.94;76.39;100247.03;4996990;28;20798;-68
2023/07/19 06:01:43;;;;;;;15.95;8.93;;;;;;;24.96;76.34;100244.81;5004165;28;20022;-69
2023/07/19 06:04:09;;;;;;;13.85;8.30;;;;;;;25.07;75.57;100248.72;4999676;28;20108;-69
2023/07/19 06:06:34;;;;;;;16.65;8.40;;;;;;;25.13;74.61;100231.25;5000543;28;20034;-69
2023/07/19 06:09:05;;;;;;;15.25;8.65;;;;;;;25.24;74.37;100245.16;5004081;28;20543;-67
2023/07/19 06:11:33;;;;;;;14.75;8.45;;;;;;;25.30;73.70;100232.28;5004618;28;20022;-66
2023/07/19 06:13:59;;;;;;;15.55;8.30;;;;;;;25.34;73.57;100238.59;5000229;28;20026;-68
2023/07/19 06:16:25;;;;;;;15.68;7.60;;;;;;;25.42;72.97;100241.22;5000418;28;20037;-74
2023/07/19 06:18:50;;;;;;;10.70;7.30;;;;;;;25.50;71.57;100239.59;5001570;28;20036;-74
2023/07/19 06:21:16;;;;;;;13.30;6.90;;;;;;;25.55;71.71;100217.81;5003094;28;20040;-75
2023/07/19 06:23:42;;;;;;;13.68;7.22;;;;;;;25.66;71.32;100245.16;5001037;28;20029;-76
2023/07/19 06:26:07;;;;;;;11.38;6.88;;;;;;;25.71;70.55;100236.06;5000507;28;20480;-75
2023/07/19 06:28:33;;;;;;;13.30;7.03;;;;;;;25.76;70.29;100216.97;5003727;28;20038;-74
2023/07/19 06:30:59;;;;;;;15.48;7.47;;;;;;;25.85;69.58;100204.22;5000794;28;20029;-74
2023/07/19 06:33:25;;;;;;;12.32;6.20;;;;;;;25.94;69.49;100199.56;5001387;28;20037;-75
2023/07/19 06:35:51;;;;;;;10.77;6.70;;;;;;;26.02;68.07;100204.06;5000545;28;20846;-74
2023/07/19 06:38:16;;;;;;;12.32;6.13;;;;;;;26.10;67.64;100227.47;4995105;28;20053;-73
2023/07/19 06:40:41;;;;;;;15.43;6.53;;;;;;;26.12;66.48;100237.13;5005133;28;20029;-80
2023/07/19 06:43:09;;;;;;;10.23;5.40;;;;;;;26.25;66.11;100227.97;4999047;28;20491;-74
2023/07/19 06:45:35;;;;;;;9.35;6.05;;;;;;;26.27;64.60;100214.91;5001286;28;20179;-75
2023/07/19 06:48:00;;;;;;;13.60;5.97;;;;;;;26.31;64.78;100205.00;5006156;28;20023;-74
2023/07/19 06:50:26;;;;;;;8.45;5.40;;;;;;;26.47;63.33;100235.63;5017634;28;20436;-75
2023/07/19 06:52:51;;;;;;;10.40;4.93;;;;;;;26.43;63.08;100237.41;5003884;28;20086;-74
2023/07/19 06:55:16;;;;;;;11.82;4.82;;;;;;;26.52;62.09;100238.09;5003974;28;20030;-75
2023/07/19 06:57:42;;;;;;;12.20;5.15;;;;;;;26.57;62.11;100239.03;5003039;28;20026;-74
2023/07/19 07:00:08;;;;;;;18.23;5.50;;;;;;;26.57;61.96;100222.84;5005915;28;20026;-76
2023/07/19 07:02:33;;;;;;;12.70;4.78;;;;;;;26.79;61.42;100246.69;5003212;28;20037;-76
2023/07/19 07:04:59;;;;;;;11.85;4.78;;;;;;;26.56;61.04;100188.88;5002873;28;20041;-75
2023/07/19 07:07:24;;;;;;;8.85;4.30;;;;;;;26.79;59.72;100213.50;5000130;28;20136;-74
2023/07/19 07:09:50;;;;;;;13.38;4.78;;;;;;;26.76;59.55;100206.84;5007288;28;20094;-74
2023/07/19 07:12:15;;;;;;;10.95;4.95;;;;;;;26.86;59.23;100219.13;5007863;28;20370;-74
2023/07/19 07:14:41;;;;;;;9.75;4.47;;;;;;;26.89;59.22;100224.66;5011539;28;20560;-73
2023/07/19 07:17:07;;;;;;;12.48;4.55;;;;;;;26.89;58.99;100221.94;5003788;28;20073;-76
2023/07/19 07:19:32;;;;;;;11.98;4.18;;;;;;;26.89;58.19;100219.25;5003001;28;20041;-73
2023/07/19 07:21:58;;;;;;;10.00;4.47;;;;;;;26.94;57.64;100232.53;5007576;28;20026;-74
2023/07/19 07:24:24;;;;;;;10.43;4.45;;;;;;;26.91;58.11;100227.81;5006629;28;20476;-74
2023/07/19 07:26:50;;;;;;;9.25;4.85;;;;;;;27.01;57.50;100244.66;5001071;28;20030;-74
2023/07/19 07:29:15;;;;;;;10.45;4.38;;;;;;;27.04;57.92;100249.41;5001035;28;20022;-74
2023/07/19 07:31:41;;;;;;;9.70;4.97;;;;;;;27.04;57.08;100252.88;5000270;28;20075;-75
2023/07/19 07:34:07;;;;;;;12.85;4.35;;;;;;;27.03;57.11;100253.22;4998300;28;20029;-74
2023/07/19 07:36:33;;;;;;;7.43;4.32;;;;;;;27.03;56.85;100237.00;5003744;28;20042;-74
2023/07/19 07:38:58;;;;;;;14.20;4.38;;;;;;;27.00;56.87;100216.06;5002382;28;20025;-74
2023/07/19 07:41:24;;;;;;;13.57;4.15;;;;;;;27.05;57.67;100213.91;4998750;28;20480;-72
2023/07/19 07:43:49;;;;;;;7.47;4.10;;;;;;;27.13;57.65;100217.63;4998215;28;20037;-75
2023/07/19 07:46:14;;;;;;;8.40;3.88;;;;;;;27.23;56.36;100219.09;5002253;28;20050;-76
2023/07/19 07:48:40;;;;;;;6.88;3.78;;;;;;;27.38;55.71;100231.91;5001437;28;20503;-74
2023/07/19 07:51:05;;;;;;;7.25;3.67;;;;;;;27.41;55.74;100233.91;4996776;28;20038;-73
2023/07/19 07:53:31;;;;;;;10.68;3.42;;;;;;;27.51;55.31;100240.75;4999399;28;20030;-74
2023/07/19 07:55:58;;;;;;;7.47;4.03;;;;;;;27.62;54.90;100232.97;4997012;28;20026;-75
2023/07/19 07:58:23;;;;;;;5.78;3.10;;;;;;;27.63;54.29;100208.28;4998823;28;20058;-74
2023/07/19 08:00:49;;;;;;;7.35;3.38;;;;;;;27.75;51.86;100213.63;5000960;28;20045;-75
2023/07/19 08:03:14;;;;;;;9.80;3.20;;;;;;;27.83;52.26;100217.34;5002483;28;20034;-74
2023/07/19 08:05:40;;;;;;;8.35;2.75;;;;;;;27.93;51.83;100216.03;5003391;28;20042;-73
2023/07/19 08:08:06;;;;;;;10.18;3.10;;;;;;;28.04;51.18;100211.72;5003769;28;20029;-73
2023/07/19 08:10:32;;;;;;;8.35;3.42;;;;;;;28.04;51.21;100200.06;5000478;28;20470;-74
2023/07/19 08:12:58;;;;;;;10.20;3.40;;;;;;;28.10;50.79;100207.59;5000494;28;20408;-76
2023/07/19 08:15:24;;;;;;;12.63;3.53;;;;;;;28.32;50.68;100217.03;5001838;28;20023;-71
2023/07/19 08:17:50;;;;;;;10.15;3.90;;;;;;;28.34;49.22;100212.06;5007400;28;20099;-73
2023/07/19 08:20:15;;;;;;;8.55;3.75;;;;;;;28.43;49.76;100211.88;5004475;28;20092;-75
2023/07/19 08:22:41;;;;;;;16.58;4.70;;;;;;;28.51;50.02;100208.22;5002069;28;21238;-75
2023/07/19 08:25:06;;;;;;;13.82;4.85;;;;;;;28.74;49.04;100221.16;5002890;28;20038;-72
2023/07/19 08:27:32;;;;;;;13.02;4.93;;;;;;;28.77;49.40;100213.09;4999412;28;20117;-71
2023/07/19 08:30:00;;;;;;;9.52;4.63;;;;;;;28.78;49.87;100205.75;5002684;28;20079;-72
2023/07/19 08:32:25;;;;;;;15.52;5.72;;;;;;;28.86;48.51;100204.78;5007437;28;20061;-72
2023/07/19 08:34:51;;;;;;;16.98;5.68;;;;;;;28.89;48.63;100190.53;5007812;28;20061;-72
2023/07/19 08:37:16;;;;;;;12.32;5.78;;;;;;;28.91;48.61;100193.66;4997963;28;20077;-72
2023/07/19 08:39:41;;;;;;;11.40;6.50;;;;;;;29.02;49.54;100202.00;5003435;28;20569;-70
2023/07/19 08:42:07;;;;;;;16.75;7.28;;;;;;;29.04;48.62;100211.41;5003344;28;20033;-71
2023/07/19 08:44:32;;;;;;;19.77;6.35;;;;;;;28.77;48.33;100167.03;5003721;28;20103;-71
2023/07/19 08:46:58;;;;;;;17.85;5.88;;;;;;;29.03;48.76;100195.47;5003869;28;20545;-72
2023/07/19 08:49:24;;;;;;;14.30;5.32;;;;;;;29.13;48.54;100200.34;5003316;28;20034;-75
2023/07/19 08:51:50;;;;;;;8.60;4.72;;;;;;;29.12;48.55;100187.94;5000084;28;20076;-76
2023/07/19 08:54:16;;;;;;;9.85;3.20;;;;;;;29.22;48.93;100200.94;4996545;28;20356;-73
2023/07/19 08:56:42;;;;;;;9.80;3.05;;;;;;;29.32;48.54;100196.09;5002698;28;20029;-75
2023/07/19 08:59:07;;;;;;;7.65;2.72;;;;;;;29.39;48.87;100190.81;5004881;28;20092;-75
2023/07/19 09:01:33;;;;;;;9.75;3.20;;;;;;;29.40;48.27;100187.75;5003385;28;20591;-72
2023/07/19 09:03:59;;;;;;;11.43;3.22;;;;;;;29.59;46.66;100195.06;5002059;28;20400;-73
2023/07/19 09:06:28;;;;;;;15.90;6.55;;;;;;;29.63;46.56;100195.94;5001104;28;20112;-73
2023/07/19 09:08:54;;;;;;;10.35;3.35;;;;;;;29.60;45.95;100195.88;4998363;28;20088;-73
2023/07/19 09:11:21;;;;;;;12.05;2.38;;;;;;;29.70;45.29;100202.69;5002563;28;20030;-71
2023/07/19 09:13:54;;;;;;;8.52;2.60;;;;;;;29.71;45.57;100188.72;5001023;28;20056;-73
2023/07/19 09:16:30;;;;;;;10.32;2.22;;;;;;;29.66;44.75;100178.94;5002205;28;20037;-76
2023/07/19 09:19:00;;;;;;;9.27;2.42;;;;;;;29.84;44.65;100187.44;5004335;28;20072;-74
2023/07/19 09:21:43;;;;;;;9.23;2.55;;;;;;;29.96;43.52;100189.19;5004255;28;20233;-73
2023/07/19 09:24:10;;;;;;;9.60;2.50;;;;;;;29.96;43.69;100183.75;5001528;28;20088;-73
2023/07/19 09:26:53;;;;;;;12.93;2.97;;;;;;;30.03;44.29;100185.81;5003478;28;20095;-74
2023/07/19 09:29:20;;;;;;;13.07;4.45;;;;;;;30.08;44.08;100188.22;5005199;28;20791;-73
2023/07/19 09:32:06;;;;;;;14.27;4.50;;;;;;;30.18;44.22;100182.19;5006929;28;20107;-73
2023/07/19 09:34:38;;;;;;;12.13;4.72;;;;;;;30.16;43.64;100162.75;5003108;28;20038;-76
2023/07/19 09:37:04;;;;;;;10.98;5.40;;;;;;;30.29;43.04;100175.03;5002805;28;20073;-77
2023/07/19 09:39:34;;;;;;;16.42;5.90;;;;;;;30.35;43.25;100174.72;5006988;28;20042;-75
2023/07/19 09:42:00;;;;;;;15.65;4.93;;;;;;;30.43;43.00;100181.81;5000922;28;20394;-75
2023/07/19 09:44:26;;;;;;;13.45;5.03;;;;;;;30.47;43.56;100183.44;5003113;28;20077;-72
2023/07/19 09:46:53;;;;;;;11.07;4.22;;;;;;;30.47;43.59;100155.50;4999747;28;20423;-73
2023/07/19 09:49:19;;;;;;;9.75;3.67;;;;;;;30.60;43.00;100172.38;5002557;28;20176;-73
2023/07/19 09:51:47;;;;;;;14.48;4.03;;;;;;;30.68;43.21;100172.09;5002362;28;20144;-73
2023/07/19 09:54:13;;;;;;;8.63;3.42;;;;;;;30.78;42.43;100169.91;5001078;28;20112;-73
2023/07/19 09:56:40;;;;;;;8.93;3.15;;;;;;;30.77;42.59;100150.09;5003241;28;20034;-73
2023/07/19 09:59:10;;;;;;;11.18;3.22;;;;;;;30.89;41.72;100160.00;5004983;28;20034;-73
2023/07/19 10:01:37;;;;;;;7.68;3.90;;;;;;;30.94;41.01;100154.25;5002941;28;20021;-69
2023/07/19 10:04:23;;;;;;;16.27;3.72;;;;;;;31.00;41.68;100157.41;5000971;28;20041;-71
2023/07/19 10:07:10;;;;;;;11.23;2.95;;;;;;;31.07;40.85;100161.00;5000257;28;20033;-70
2023/07/19 10:09:40;;;;;;;9.27;3.35;;;;;;;31.16;40.94;100156.06;5000397;28;20037;-68
2023/07/19 10:12:24;;;;;;;8.73;3.20;;;;;;;31.31;40.89;100169.81;5002436;28;20038;-68
2023/07/19 10:15:00;;;;;;;12.30;3.22;;;;;;;31.44;40.63;100186.69;4999949;28;20057;-67
2023/07/19 10:17:27;;;;;;;14.05;4.60;;;;;;;31.48;40.17;100209.31;5002210;28;20077;-68
2023/07/19 10:20:14;;;;;;;9.15;4.15;;;;;;;31.56;40.21;100221.84;5002038;28;20027;-71
2023/07/19 10:23:00;;;;;;;10.65;4.15;;;;;;;31.65;39.38;100214.16;5002553;28;20029;-70
2023/07/19 10:25:29;;;;;;;9.18;3.70;;;;;;;31.73;39.19;100212.31;4995601;28;20026;-69
2023/07/19 10:27:56;;;;;;;9.45;4.45;;;;;;;31.76;39.79;100201.44;4998555;28;20474;-77
2023/07/19 10:30:43;;;;;;;9.20;3.58;;;;;;;31.70;39.33;100175.72;5004267;28;20065;-72
2023/07/19 10:33:09;;;;;;;8.10;3.20;;;;;;;31.77;39.51;100164.91;4999153;28;20068;-72
2023/07/19 10:35:34;;;;;;;9.77;3.70;;;;;;;31.81;39.49;100148.59;4999167;28;20049;-74
2023/07/19 10:38:00;;;;;;;9.82;3.50;;;;;;;31.82;39.68;100128.38;5005983;28;20046;-73
2023/07/19 10:40:25;;;;;;;7.90;3.40;;;;;;;31.78;39.76;100114.72;5001232;28;20037;-74
2023/07/19 10:42:51;;;;;;;12.02;4.80;;;;;;;31.80;39.26;100108.91;5002421;28;20033;-72
2023/07/19 10:45:16;;;;;;;14.20;5.60;;;;;;;31.74;38.31;100089.41;5001441;28;20120;-74
2023/07/19 10:47:42;;;;;;;14.90;5.45;;;;;;;31.85;38.07;100115.97;5002032;28;20499;-70
2023/07/19 10:50:08;;;;;;;17.15;6.45;;;;;;;31.90;38.89;100085.66;4999875;28;20076;-72
2023/07/19 10:52:34;;;;;;;14.68;6.30;;;;;;;32.01;38.13;100042.94;4997028;28;20025;-69
2023/07/19 10:54:59;;;;;;;12.18;5.97;;;;;;;32.04;37.61;100014.97;5001100;28;20036;-69
2023/07/19 10:57:27;;;;;;;17.80;7.20;;;;;;;32.11;38.05;100003.31;4998947;28;20033;-73
2023/07/19 10:59:52;;;;;;;14.63;5.57;;;;;;;32.16;37.13;100016.59;5000129;28;20022;-73
2023/07/19 11:02:18;;;;;;;16.23;5.10;;;;;;;32.20;36.93;100050.06;4999988;28;20036;-71
2023/07/19 11:04:46;;;;;;;13.43;6.03;;;;;;;32.21;37.90;100043.47;4998757;28;20062;-72
2023/07/19 11:07:11;;;;;;;14.68;5.03;;;;;;;32.31;36.95;100061.06;4997305;28;20044;-73
2023/07/19 11:09:41;;;;;;;15.40;6.25;;;;;;;32.36;37.23;100068.84;4994903;28;20034;-73
2023/07/19 11:12:09;;;;;;;11.95;5.50;;;;;;;32.47;36.43;100060.72;4995927;28;20037;-72
2023/07/19 11:14:42;;;;;;;8.13;5.13;;;;;;;32.60;36.15;100064.72;5000569;28;20052;-71
2023/07/19 11:17:08;;;;;;;14.63;5.15;;;;;;;32.56;35.57;100042.09;5000084;28;20037;-73